createdAt,value
2018-09-12T00:00:21.460Z,16.81
2018-09-12T00:01:21.452Z,16.83
2018-09-12T00:02:21.403Z,16.76
2018-09-12T00:03:21.384Z,16.75
2018-09-12T00:04:21.317Z,16.76
2018-09-12T00:05:21.324Z,16.68
2018-09-12T00:06:21.259Z,16.73
2018-09-12T00:07:21.223Z,16.68
2018-09-12T00:08:21.170Z,16.68
2018-09-12T00:09:21.159Z,16.66
2018-09-12T00:10:21.111Z,16.64
2018-09-12T00:11:21.073Z,16.71
2018-09-12T00:12:21.024Z,16.66
2018-09-12T00:13:20.977Z,16.63
2018-09-12T00:14:20.928Z,16.67
2018-09-12T00:15:20.926Z,16.66
2018-09-12T00:16:20.858Z,16.60
2018-09-12T00:17:20.833Z,16.63
2018-09-12T00:18:20.797Z,16.58
2018-09-12T00:19:20.748Z,16.61
2018-09-12T00:20:20.702Z,16.60
2018-09-12T00:21:20.694Z,16.58
2018-09-12T00:22:20.643Z,16.60
2018-09-12T00:23:20.611Z,16.46
2018-09-12T00:24:20.549Z,16.50
2018-09-12T00:25:20.544Z,16.52
2018-09-12T00:26:20.535Z,16.48
2018-09-12T00:27:20.438Z,16.42
2018-09-12T00:28:20.385Z,16.42
2018-09-12T00:29:20.375Z,16.48
2018-09-12T00:30:20.324Z,16.34
2018-09-12T00:31:20.325Z,16.35
2018-09-12T00:32:20.260Z,16.41
2018-09-12T00:33:20.218Z,16.38
2018-09-12T00:34:20.212Z,16.34
2018-09-12T00:35:20.134Z,16.45
2018-09-12T00:36:20.144Z,16.35
2018-09-12T00:37:20.078Z,16.31
2018-09-12T00:38:20.020Z,16.33
2018-09-12T00:39:20.008Z,16.41
2018-09-12T00:40:19.936Z,16.27
2018-09-12T00:41:19.908Z,16.39
2018-09-12T00:42:19.892Z,16.30
2018-09-12T00:43:19.852Z,16.34
2018-09-12T00:44:32.266Z,16.39
2018-09-12T00:45:19.866Z,16.38
2018-09-12T00:46:19.761Z,16.31
2018-09-12T00:47:19.715Z,16.33
2018-09-12T00:48:19.679Z,16.27
2018-09-12T00:49:19.609Z,16.23
2018-09-12T00:50:19.558Z,16.17
2018-09-12T00:51:19.523Z,16.20
2018-09-12T00:52:19.523Z,16.23
2018-09-12T00:53:19.461Z,16.20
2018-09-12T00:54:19.426Z,16.15
2018-09-12T00:55:19.362Z,16.21
2018-09-12T00:56:19.337Z,16.11
2018-09-12T00:57:19.308Z,16.23
2018-09-12T00:58:19.271Z,16.14
2018-09-12T00:59:19.231Z,16.27
2018-09-12T01:00:19.177Z,16.27
2018-09-12T01:01:19.158Z,16.27
2018-09-12T01:02:19.115Z,16.23
2018-09-12T01:03:19.123Z,16.15
2018-09-12T01:04:19.011Z,16.24
2018-09-12T01:05:18.997Z,16.28
2018-09-12T01:06:18.962Z,16.23
2018-09-12T01:07:18.915Z,16.25
2018-09-12T01:08:18.917Z,16.30
2018-09-12T01:09:18.845Z,16.25
2018-09-12T01:10:18.791Z,16.21
2018-09-12T01:11:18.771Z,16.27
2018-09-12T01:12:18.710Z,16.34
2018-09-12T01:13:18.689Z,16.25
2018-09-12T01:14:30.553Z,16.21
2018-09-12T01:15:18.700Z,16.23
2018-09-12T01:16:18.668Z,16.28
2018-09-12T01:17:18.536Z,16.20
2018-09-12T01:18:19.062Z,16.25
2018-09-12T01:19:18.504Z,16.25
2018-09-12T01:20:18.395Z,16.28
2018-09-12T01:21:18.351Z,16.25
2018-09-12T01:22:18.327Z,16.07
2018-09-12T01:23:18.278Z,16.17
2018-09-12T01:24:28.685Z,16.07
2018-09-12T01:25:18.316Z,16.08
2018-09-12T01:26:18.190Z,16.14
2018-09-12T01:27:18.280Z,16.02
2018-09-12T01:28:18.109Z,16.07
2018-09-12T01:29:18.113Z,15.93
2018-09-12T01:30:18.047Z,16.02
2018-09-12T01:31:18.015Z,15.97
2018-09-12T01:32:18.605Z,15.92
2018-09-12T01:33:17.903Z,15.96
2018-09-12T01:34:17.885Z,15.97
2018-09-12T01:35:17.860Z,15.97
2018-09-12T01:36:17.803Z,15.96
2018-09-12T01:37:17.764Z,16.02
2018-09-12T01:38:17.733Z,15.93
2018-09-12T01:39:17.678Z,15.89
2018-09-12T01:40:17.671Z,15.82
2018-09-12T01:41:17.590Z,15.80
2018-09-12T01:42:17.570Z,15.83
2018-09-12T01:43:17.525Z,15.80
2018-09-12T01:44:17.477Z,15.78
2018-09-12T01:45:17.470Z,15.82
2018-09-12T01:46:17.421Z,15.78
2018-09-12T01:47:17.399Z,15.75
2018-09-12T01:48:17.345Z,15.74
2018-09-12T01:49:17.292Z,15.74
2018-09-12T01:50:17.262Z,15.72
2018-09-12T01:51:17.255Z,15.87
2018-09-12T01:52:17.196Z,15.67
2018-09-12T01:53:17.145Z,15.72
2018-09-12T01:54:17.106Z,15.74
2018-09-12T01:55:17.083Z,15.75
2018-09-12T01:56:17.062Z,15.78
2018-09-12T01:57:16.994Z,15.65
2018-09-12T01:58:16.928Z,15.78
2018-09-12T01:59:16.906Z,15.75
2018-09-12T02:00:16.881Z,15.72
2018-09-12T02:01:16.858Z,15.87
2018-09-12T02:02:16.811Z,15.72
2018-09-12T02:03:16.770Z,15.84
2018-09-12T02:04:16.705Z,15.74
2018-09-12T02:05:16.680Z,15.78
2018-09-12T02:06:16.664Z,15.71
2018-09-12T02:07:16.623Z,15.72
2018-09-12T02:08:16.573Z,15.64
2018-09-12T02:09:16.516Z,15.62
2018-09-12T02:10:16.477Z,15.68
2018-09-12T02:11:16.443Z,15.59
2018-09-12T02:12:16.428Z,15.59
2018-09-12T02:13:16.357Z,15.59
2018-09-12T02:14:16.343Z,15.57
2018-09-12T02:15:16.284Z,15.50
2018-09-12T02:16:16.247Z,15.57
2018-09-12T02:17:16.226Z,15.56
2018-09-12T02:18:16.173Z,15.46
2018-09-12T02:19:16.134Z,15.49
2018-09-12T02:20:16.094Z,15.43
2018-09-12T02:21:16.047Z,15.46
2018-09-12T02:22:16.064Z,15.44
2018-09-12T02:23:28.065Z,15.44
2018-09-12T02:24:15.942Z,15.47
2018-09-12T02:25:16.108Z,15.39
2018-09-12T02:26:16.450Z,15.36
2018-09-12T02:27:15.815Z,15.41
2018-09-12T02:28:15.830Z,15.35
2018-09-12T02:29:15.735Z,15.39
2018-09-12T02:30:15.695Z,15.35
2018-09-12T02:31:15.688Z,15.39
2018-09-12T02:32:15.628Z,15.32
2018-09-12T02:33:15.635Z,15.34
2018-09-12T02:34:15.529Z,15.29
2018-09-12T02:35:15.526Z,15.38
2018-09-12T02:36:15.521Z,15.35
2018-09-12T02:37:15.447Z,15.36
2018-09-12T02:38:15.440Z,15.32
2018-09-12T02:39:15.371Z,15.27
2018-09-12T02:40:15.317Z,15.21
2018-09-12T02:41:15.274Z,15.23
2018-09-12T02:42:15.219Z,15.23
2018-09-12T02:43:15.206Z,15.11
2018-09-12T02:44:15.195Z,15.13
2018-09-12T02:45:15.117Z,15.11
2018-09-12T02:46:15.092Z,15.09
2018-09-12T02:47:15.036Z,15.10
2018-09-12T02:48:15.017Z,15.11
2018-09-12T02:49:14.988Z,15.14
2018-09-12T02:50:14.920Z,15.11
2018-09-12T02:51:14.891Z,15.09
2018-09-12T02:52:14.877Z,15.07
2018-09-12T02:53:14.793Z,15.11
2018-09-12T02:54:14.805Z,15.07
2018-09-12T02:55:14.726Z,15.09
2018-09-12T02:56:14.706Z,15.06
2018-09-12T02:57:14.645Z,15.06
2018-09-12T02:58:14.612Z,15.02
2018-09-12T02:59:14.617Z,14.95
2018-09-12T03:00:14.536Z,14.91
2018-09-12T03:01:14.475Z,14.94
2018-09-12T03:02:14.472Z,15.01
2018-09-12T03:03:14.420Z,14.95
2018-09-12T03:04:14.387Z,14.98
2018-09-12T03:05:14.354Z,15.03
2018-09-12T03:06:14.281Z,14.91
2018-09-12T03:07:14.284Z,14.91
2018-09-12T03:08:14.231Z,14.89
2018-09-12T03:09:14.199Z,14.99
2018-09-12T03:10:14.171Z,14.91
2018-09-12T03:11:14.100Z,14.84
2018-09-12T03:12:14.070Z,14.94
2018-09-12T03:13:14.030Z,14.94
2018-09-12T03:14:13.981Z,14.98
2018-09-12T03:15:13.984Z,14.94
2018-09-12T03:16:13.912Z,15.01
2018-09-12T03:17:13.859Z,15.02
2018-09-12T03:18:13.818Z,15.09
2018-09-12T03:19:13.782Z,15.11
2018-09-12T03:20:13.761Z,15.13
2018-09-12T03:21:13.743Z,15.11
2018-09-12T03:22:13.675Z,15.06
2018-09-12T03:23:13.628Z,15.11
2018-09-12T03:24:13.594Z,15.06
2018-09-12T03:25:13.546Z,15.25
2018-09-12T03:26:13.559Z,15.16
2018-09-12T03:27:13.463Z,15.17
2018-09-12T03:28:13.438Z,15.34
2018-09-12T03:29:13.409Z,15.31
2018-09-12T03:30:13.371Z,15.36
2018-09-12T03:31:13.359Z,15.36
2018-09-12T03:32:13.275Z,15.36
2018-09-12T03:33:13.229Z,15.35
2018-09-12T03:34:13.220Z,15.36
2018-09-12T03:35:13.186Z,15.39
2018-09-12T03:36:13.115Z,15.38
2018-09-12T03:37:13.110Z,15.36
2018-09-12T03:38:13.052Z,15.43
2018-09-12T03:39:13.000Z,15.36
2018-09-12T03:40:12.960Z,15.36
2018-09-12T03:41:12.947Z,15.32
2018-09-12T03:42:12.908Z,15.29
2018-09-12T03:43:12.859Z,15.27
2018-09-12T03:44:12.802Z,15.31
2018-09-12T03:45:12.762Z,15.25
2018-09-12T03:46:12.745Z,15.20
2018-09-12T03:47:12.733Z,15.14
2018-09-12T03:48:12.731Z,15.19
2018-09-12T03:49:12.613Z,15.13
2018-09-12T03:50:12.567Z,15.11
2018-09-12T03:51:12.530Z,15.21
2018-09-12T03:52:12.528Z,15.25
2018-09-12T03:53:12.471Z,15.31
2018-09-12T03:54:12.437Z,15.17
2018-09-12T03:55:12.398Z,15.17
2018-09-12T03:56:12.358Z,15.19
2018-09-12T03:57:12.322Z,15.10
2018-09-12T03:58:12.284Z,15.17
2018-09-12T03:59:12.228Z,15.19
2018-09-12T04:00:23.744Z,15.13
2018-09-12T04:01:23.356Z,15.13
2018-09-12T04:02:12.149Z,15.17
2018-09-12T04:03:12.216Z,15.20
2018-09-12T04:04:12.067Z,15.11
2018-09-12T04:05:11.993Z,15.11
2018-09-12T04:06:11.977Z,15.11
2018-09-12T04:07:11.951Z,15.13
2018-09-12T04:08:12.058Z,15.11
2018-09-12T04:09:11.910Z,15.10
2018-09-12T04:10:13.624Z,14.96
2018-09-12T04:11:11.781Z,15.07
2018-09-12T04:12:12.523Z,15.06
2018-09-12T04:13:11.677Z,14.92
2018-09-12T04:14:11.657Z,15.06
2018-09-12T04:15:11.612Z,14.96
2018-09-12T04:16:11.563Z,14.89
2018-09-12T04:17:11.517Z,14.92
2018-09-12T04:18:11.488Z,14.95
2018-09-12T04:19:11.479Z,14.98
2018-09-12T04:20:11.432Z,14.86
2018-09-12T04:21:20.349Z,14.92
2018-09-12T04:22:13.210Z,14.94
2018-09-12T04:23:21.713Z,14.91
2018-09-12T04:24:11.337Z,14.96
2018-09-12T04:25:11.241Z,14.91
2018-09-12T04:26:11.192Z,15.02
2018-09-12T04:27:11.118Z,15.06
2018-09-12T04:28:11.101Z,14.98
2018-09-12T04:29:11.077Z,15.03
2018-09-12T04:30:11.084Z,15.07
2018-09-12T04:31:12.829Z,15.11
2018-09-12T04:32:10.924Z,15.16
2018-09-12T04:33:10.895Z,15.32
2018-09-12T04:34:10.870Z,15.38
2018-09-12T04:35:10.837Z,15.47
2018-09-12T04:36:10.802Z,15.41
2018-09-12T04:37:10.791Z,15.46
2018-09-12T04:38:10.700Z,15.49
2018-09-12T04:39:10.682Z,15.46
2018-09-12T04:40:10.642Z,15.46
2018-09-12T04:41:10.574Z,15.46
2018-09-12T04:42:10.555Z,15.46
2018-09-12T04:43:10.498Z,15.44
2018-09-12T04:44:10.467Z,15.64
2018-09-12T04:45:10.467Z,15.56
2018-09-12T04:46:10.387Z,15.60
2018-09-12T04:47:10.346Z,15.59
2018-09-12T04:48:10.312Z,15.57
2018-09-12T04:49:10.279Z,15.67
2018-09-12T04:50:10.284Z,15.64
2018-09-12T04:51:10.224Z,15.71
2018-09-12T04:52:10.148Z,15.74
2018-09-12T04:53:10.147Z,15.65
2018-09-12T04:54:10.082Z,15.74
2018-09-12T04:55:10.039Z,15.80
2018-09-12T04:56:10.037Z,15.82
2018-09-12T04:57:09.969Z,15.71
2018-09-12T04:58:09.922Z,15.80
2018-09-12T04:59:09.888Z,15.86
2018-09-12T05:00:21.826Z,15.90
2018-09-12T05:01:18.754Z,15.87
2018-09-12T05:02:09.765Z,15.94
2018-09-12T05:03:09.757Z,15.87
2018-09-12T05:04:09.756Z,15.94
2018-09-12T05:05:10.627Z,15.90
2018-09-12T05:06:09.602Z,15.89
2018-09-12T05:07:09.599Z,15.90
2018-09-12T05:08:09.550Z,15.80
2018-09-12T05:09:09.466Z,15.80
2018-09-12T05:10:09.495Z,15.80
2018-09-12T05:11:19.854Z,15.76
2018-09-12T05:12:09.462Z,15.76
2018-09-12T05:13:09.344Z,15.78
2018-09-12T05:14:09.852Z,15.74
2018-09-12T05:15:09.252Z,15.74
2018-09-12T05:16:09.247Z,15.87
2018-09-12T05:17:09.189Z,15.75
2018-09-12T05:18:09.131Z,15.76
2018-09-12T05:19:09.101Z,15.82
2018-09-12T05:20:09.059Z,15.75
2018-09-12T05:21:09.021Z,15.68
2018-09-12T05:22:09.003Z,15.68
2018-09-12T05:23:08.947Z,15.75
2018-09-12T05:24:08.954Z,15.90
2018-09-12T05:25:08.878Z,15.90
2018-09-12T05:26:08.839Z,15.83
2018-09-12T05:27:08.825Z,15.75
2018-09-12T05:28:08.778Z,15.84
2018-09-12T05:29:08.722Z,15.74
2018-09-12T05:30:08.655Z,15.80
2018-09-12T05:31:08.635Z,15.75
2018-09-12T05:32:08.586Z,15.84
2018-09-12T05:33:08.568Z,15.76
2018-09-12T05:34:08.554Z,15.86
2018-09-12T05:35:08.481Z,15.80
2018-09-12T05:36:08.452Z,15.87
2018-09-12T05:37:08.404Z,15.90
2018-09-12T05:38:08.458Z,15.96
2018-09-12T05:39:08.324Z,15.92
2018-09-12T05:40:08.287Z,15.87
2018-09-12T05:41:08.236Z,15.93
2018-09-12T05:42:08.233Z,15.94
2018-09-12T05:43:08.173Z,15.97
2018-09-12T05:44:08.165Z,16.01
2018-09-12T05:45:08.085Z,16.00
2018-09-12T05:46:08.052Z,16.04
2018-09-12T05:47:08.013Z,16.08
2018-09-12T05:48:07.993Z,16.07
2018-09-12T05:49:07.982Z,16.24
2018-09-12T05:50:07.952Z,16.42
2018-09-12T05:51:07.856Z,16.33
2018-09-12T05:52:07.824Z,16.43
2018-09-12T05:53:07.773Z,16.42
2018-09-12T05:54:07.773Z,16.39
2018-09-12T05:55:07.724Z,16.46
2018-09-12T05:56:07.697Z,16.56
2018-09-12T05:57:07.631Z,16.49
2018-09-12T05:58:07.595Z,16.53
2018-09-12T05:59:07.563Z,16.56
2018-09-12T06:00:07.515Z,16.64
2018-09-12T06:01:18.494Z,16.70
2018-09-12T06:02:09.801Z,16.85
2018-09-12T06:03:07.783Z,17.48
2018-09-12T06:04:07.407Z,18.39
2018-09-12T06:05:08.585Z,19.54
2018-09-12T06:06:07.268Z,20.43
2018-09-12T06:07:07.347Z,21.24
2018-09-12T06:08:07.215Z,21.83
2018-09-12T06:09:07.159Z,22.47
2018-09-12T06:10:08.511Z,22.73
2018-09-12T06:11:07.112Z,23.27
2018-09-12T06:12:07.073Z,23.76
2018-09-12T06:13:07.012Z,23.84
2018-09-12T06:14:07.010Z,24.03
2018-09-12T06:15:06.971Z,24.13
2018-09-12T06:16:06.907Z,24.12
2018-09-12T06:17:06.859Z,24.24
2018-09-12T06:18:06.834Z,24.32
2018-09-12T06:19:06.803Z,24.69
2018-09-12T06:20:06.780Z,24.88
2018-09-12T06:21:19.318Z,24.91
2018-09-12T06:22:06.697Z,24.83
2018-09-12T06:23:17.827Z,25.03
2018-09-12T06:24:06.682Z,25.10
2018-09-12T06:25:06.595Z,25.55
2018-09-12T06:26:06.608Z,25.57
2018-09-12T06:27:06.536Z,25.76
2018-09-12T06:28:06.515Z,25.80
2018-09-12T06:29:06.447Z,25.92
2018-09-12T06:30:06.445Z,25.77
2018-09-12T06:31:06.792Z,25.97
2018-09-12T06:32:06.326Z,26.23
2018-09-12T06:33:06.291Z,26.47
2018-09-12T06:34:06.261Z,26.35
2018-09-12T06:35:06.251Z,26.25
2018-09-12T06:36:06.217Z,26.12
2018-09-12T06:37:06.164Z,26.10
2018-09-12T06:38:06.136Z,26.10
2018-09-12T06:39:06.074Z,26.17
2018-09-12T06:40:06.059Z,26.07
2018-09-12T06:41:17.526Z,26.44
2018-09-12T06:42:06.843Z,26.39
2018-09-12T06:43:06.026Z,26.26
2018-09-12T06:44:05.953Z,25.99
2018-09-12T06:45:05.950Z,25.32
2018-09-12T06:46:05.947Z,24.57
2018-09-12T06:47:18.234Z,23.70
2018-09-12T06:48:05.791Z,23.69
2018-09-12T06:49:05.752Z,23.60
2018-09-12T06:50:05.765Z,23.32
2018-09-12T06:51:05.705Z,22.94
2018-09-12T06:52:05.801Z,22.80
2018-09-12T06:53:05.670Z,22.40
2018-09-12T06:54:06.541Z,22.37
2018-09-12T06:55:05.576Z,22.85
2018-09-12T06:56:05.493Z,22.97
2018-09-12T06:57:05.488Z,22.80
2018-09-12T06:58:05.460Z,22.65
2018-09-12T06:59:05.415Z,22.45
2018-09-12T07:00:05.381Z,22.36
2018-09-12T07:01:05.367Z,21.98
2018-09-12T07:02:05.303Z,21.59
2018-09-12T07:03:05.316Z,21.37
2018-09-12T07:04:05.239Z,21.19
2018-09-12T07:05:05.214Z,21.04
2018-09-12T07:06:05.191Z,21.21
2018-09-12T07:07:05.181Z,21.37
2018-09-12T07:08:05.159Z,21.72
2018-09-12T07:09:05.109Z,21.91
2018-09-12T07:10:05.040Z,22.24
2018-09-12T07:11:19.319Z,22.64
2018-09-12T07:12:05.218Z,22.24
2018-09-12T07:13:04.927Z,22.24
2018-09-12T07:14:05.080Z,22.09
2018-09-12T07:15:04.871Z,21.88
2018-09-12T07:16:04.859Z,21.83
2018-09-12T07:17:04.912Z,21.98
2018-09-12T07:18:04.771Z,21.61
2018-09-12T07:19:04.800Z,21.52
2018-09-12T07:20:04.705Z,21.31
2018-09-12T07:21:15.772Z,21.35
2018-09-12T07:22:14.099Z,21.14
2018-09-12T07:23:04.620Z,21.16
2018-09-12T07:24:04.694Z,21.22
2018-09-12T07:25:04.537Z,21.69
2018-09-12T07:26:04.569Z,21.59
2018-09-12T07:27:04.497Z,21.71
2018-09-12T07:28:04.422Z,21.96
2018-09-12T07:29:04.392Z,22.03
2018-09-12T07:30:04.406Z,22.14
2018-09-12T07:31:04.868Z,22.21
2018-09-12T07:32:04.305Z,22.06
2018-09-12T07:33:04.243Z,22.06
2018-09-12T07:34:04.239Z,21.98
2018-09-12T07:35:04.204Z,21.83
2018-09-12T07:36:04.152Z,22.20
2018-09-12T07:37:04.111Z,22.51
2018-09-12T07:38:04.213Z,22.91
2018-09-12T07:39:04.056Z,23.05
2018-09-12T07:40:04.039Z,23.10
2018-09-12T07:41:04.012Z,23.05
2018-09-12T07:42:03.951Z,23.40
2018-09-12T07:43:03.909Z,24.03
2018-09-12T07:44:03.864Z,24.45
2018-09-12T07:45:03.863Z,24.73
2018-09-12T07:46:03.831Z,24.65
2018-09-12T07:47:03.778Z,24.85
2018-09-12T07:48:03.756Z,25.14
2018-09-12T07:49:03.744Z,25.25
2018-09-12T07:50:03.679Z,25.09
2018-09-12T07:51:03.668Z,25.35
2018-09-12T07:52:03.615Z,25.45
2018-09-12T07:53:03.582Z,25.60
2018-09-12T07:54:03.575Z,25.75
2018-09-12T07:55:03.519Z,25.90
2018-09-12T07:56:03.527Z,25.65
2018-09-12T07:57:03.454Z,25.50
2018-09-12T07:58:03.415Z,25.35
2018-09-12T07:59:03.390Z,25.51
2018-09-12T08:00:03.386Z,25.75
2018-09-12T08:01:03.365Z,25.62
2018-09-12T08:02:03.310Z,25.50
2018-09-12T08:03:03.249Z,25.69
2018-09-12T08:04:03.231Z,25.83
2018-09-12T08:05:03.250Z,26.12
2018-09-12T08:06:03.164Z,26.18
2018-09-12T08:07:03.191Z,26.02
2018-09-12T08:08:03.094Z,25.85
2018-09-12T08:09:03.071Z,25.88
2018-09-12T08:10:03.049Z,26.15
2018-09-12T08:11:03.005Z,25.98
2018-09-12T08:12:03.065Z,25.99
2018-09-12T08:13:02.944Z,25.70
2018-09-12T08:14:02.913Z,25.45
2018-09-12T08:15:02.875Z,25.32
2018-09-12T08:16:02.842Z,25.33
2018-09-12T08:17:02.850Z,25.10
2018-09-12T08:18:02.807Z,25.14
2018-09-12T08:19:02.803Z,25.33
2018-09-12T08:20:02.751Z,25.32
2018-09-12T08:21:02.735Z,25.46
2018-09-12T08:22:02.673Z,25.77
2018-09-12T08:23:02.618Z,25.83
2018-09-12T08:24:02.598Z,25.82
2018-09-12T08:25:02.565Z,25.69
2018-09-12T08:26:02.578Z,25.57
2018-09-12T08:27:02.521Z,25.92
2018-09-12T08:28:02.461Z,26.25
2018-09-12T08:29:02.450Z,26.26
2018-09-12T08:30:02.420Z,26.23
2018-09-12T08:31:02.382Z,26.62
2018-09-12T08:32:02.394Z,26.84
2018-09-12T08:33:02.324Z,26.52
2018-09-12T08:34:02.304Z,26.44
2018-09-12T08:35:02.257Z,26.51
2018-09-12T08:36:02.229Z,26.65
2018-09-12T08:37:02.199Z,27.09
2018-09-12T08:38:02.178Z,27.14
2018-09-12T08:39:02.134Z,27.51
2018-09-12T08:40:02.115Z,27.43
2018-09-12T08:41:02.076Z,27.31
2018-09-12T08:42:02.068Z,27.02
2018-09-12T08:43:02.041Z,26.88
2018-09-12T08:44:01.990Z,26.70
2018-09-12T08:45:01.945Z,26.51
2018-09-12T08:46:01.915Z,26.57
2018-09-12T08:47:01.906Z,26.37
2018-09-12T08:48:01.889Z,26.17
2018-09-12T08:49:01.837Z,26.36
2018-09-12T08:50:01.824Z,26.44
2018-09-12T08:51:01.762Z,26.63
2018-09-12T08:52:01.739Z,26.45
2018-09-12T08:53:01.803Z,26.47
2018-09-12T08:54:01.676Z,26.58
2018-09-12T08:55:01.656Z,27.02
2018-09-12T08:56:01.615Z,27.13
2018-09-12T08:57:01.608Z,26.66
2018-09-12T08:58:01.565Z,26.81
2018-09-12T08:59:01.553Z,26.80
2018-09-12T09:00:12.282Z,27.07
2018-09-12T09:01:01.519Z,26.81
2018-09-12T09:02:01.651Z,26.58
2018-09-12T09:03:01.441Z,26.81
2018-09-12T09:04:01.475Z,26.87
2018-09-12T09:05:01.346Z,26.92
2018-09-12T09:06:01.322Z,26.80
2018-09-12T09:07:01.283Z,26.66
2018-09-12T09:08:01.273Z,26.85
2018-09-12T09:09:01.257Z,26.95
2018-09-12T09:10:01.223Z,27.02
2018-09-12T09:11:01.197Z,27.27
2018-09-12T09:12:01.169Z,27.34
2018-09-12T09:13:01.131Z,27.59
2018-09-12T09:14:01.128Z,27.59
2018-09-12T09:15:01.103Z,27.67
2018-09-12T09:16:01.036Z,27.47
2018-09-12T09:17:01.022Z,27.29
2018-09-12T09:18:00.972Z,27.40
2018-09-12T09:19:00.976Z,27.55
2018-09-12T09:20:00.950Z,27.60
2018-09-12T09:21:11.899Z,27.70
2018-09-12T09:22:00.843Z,27.82
2018-09-12T09:23:00.811Z,27.60
2018-09-12T09:24:00.825Z,27.24
2018-09-12T09:25:00.838Z,27.25
2018-09-12T09:26:01.627Z,26.94
2018-09-12T09:27:00.708Z,27.04
2018-09-12T09:28:00.670Z,27.12
2018-09-12T09:29:00.652Z,27.09
2018-09-12T09:30:00.648Z,27.28
2018-09-12T09:31:00.599Z,27.44
2018-09-12T09:32:00.593Z,27.47
2018-09-12T09:33:00.564Z,27.10
2018-09-12T09:34:00.516Z,27.09
2018-09-12T09:35:00.584Z,26.94
2018-09-12T09:36:00.468Z,27.07
2018-09-12T09:37:00.419Z,26.85
2018-09-12T09:38:00.420Z,27.06
2018-09-12T09:39:00.376Z,27.40
2018-09-12T09:40:00.389Z,26.94
2018-09-12T09:41:00.376Z,27.04
2018-09-12T09:42:00.292Z,27.22
2018-09-12T09:43:00.270Z,27.43
2018-09-12T09:44:00.268Z,27.36
2018-09-12T09:45:00.214Z,27.49
2018-09-12T09:46:00.240Z,27.44
2018-09-12T09:47:00.181Z,27.44
2018-09-12T09:48:00.215Z,27.27
2018-09-12T09:49:00.115Z,27.36
2018-09-12T09:50:00.086Z,27.13
2018-09-12T09:51:00.040Z,27.09
2018-09-12T09:52:00.026Z,27.31
2018-09-12T09:52:59.984Z,27.34
2018-09-12T09:53:59.937Z,27.36
2018-09-12T09:54:59.956Z,27.25
2018-09-12T09:55:59.919Z,27.00
2018-09-12T09:56:59.895Z,27.21
2018-09-12T09:57:59.837Z,27.12
2018-09-12T09:58:59.816Z,27.27
2018-09-12T10:00:11.500Z,26.97
2018-09-12T10:01:01.070Z,27.18
2018-09-12T10:01:59.754Z,27.43
2018-09-12T10:02:59.840Z,27.59
2018-09-12T10:04:10.811Z,27.88
2018-09-12T10:05:01.245Z,27.77
2018-09-12T10:06:01.205Z,27.87
2018-09-12T10:06:59.612Z,27.96
2018-09-12T10:07:59.555Z,28.02
2018-09-12T10:08:59.558Z,28.03
2018-09-12T10:09:59.489Z,28.18
2018-09-12T10:10:59.461Z,27.82
2018-09-12T10:11:59.497Z,27.47
2018-09-12T10:12:59.425Z,27.39
2018-09-12T10:13:59.438Z,27.24
2018-09-12T10:14:59.384Z,27.43
2018-09-12T10:15:59.344Z,27.27
2018-09-12T10:16:59.330Z,27.54
2018-09-12T10:17:59.275Z,27.69
2018-09-12T10:18:59.255Z,27.97
2018-09-12T10:20:10.519Z,28.24
2018-09-12T10:20:59.254Z,28.03
2018-09-12T10:21:59.257Z,27.78
2018-09-12T10:22:59.185Z,27.70
2018-09-12T10:23:59.117Z,27.67
2018-09-12T10:24:59.085Z,27.67
2018-09-12T10:25:59.042Z,27.63
2018-09-12T10:26:59.025Z,27.49
2018-09-12T10:27:59.057Z,27.47
2018-09-12T10:28:58.962Z,27.46
2018-09-12T10:29:58.970Z,27.47
2018-09-12T10:30:58.938Z,27.44
2018-09-12T10:31:58.922Z,27.60
2018-09-12T10:32:58.891Z,27.78
2018-09-12T10:33:58.842Z,27.62
2018-09-12T10:34:58.849Z,27.60
2018-09-12T10:35:58.777Z,27.70
2018-09-12T10:36:58.755Z,27.94
2018-09-12T10:37:58.732Z,28.22
2018-09-12T10:38:58.731Z,28.12
2018-09-12T10:40:09.888Z,27.92
2018-09-12T10:40:58.705Z,28.02
2018-09-12T10:41:58.608Z,27.65
2018-09-12T10:42:58.642Z,27.55
2018-09-12T10:43:58.602Z,27.50
2018-09-12T10:44:58.534Z,27.41
2018-09-12T10:45:58.499Z,27.12
2018-09-12T10:46:58.497Z,27.29
2018-09-12T10:47:58.474Z,27.25
2018-09-12T10:48:58.457Z,26.81
2018-09-12T10:49:58.400Z,26.63
2018-09-12T10:50:58.383Z,26.58
2018-09-12T10:51:58.345Z,27.14
2018-09-12T10:52:58.380Z,27.18
2018-09-12T10:53:58.302Z,27.51
2018-09-12T10:54:58.325Z,27.22
2018-09-12T10:55:58.958Z,27.46
2018-09-12T10:56:58.170Z,27.19
2018-09-12T10:57:58.138Z,27.07
2018-09-12T10:58:58.126Z,26.77
2018-09-12T10:59:58.124Z,26.63
2018-09-12T11:00:58.083Z,26.69
2018-09-12T11:01:58.036Z,26.50
2018-09-12T11:02:58.022Z,26.48
2018-09-12T11:03:57.972Z,26.57
2018-09-12T11:04:57.968Z,26.94
2018-09-12T11:05:57.950Z,27.41
2018-09-12T11:06:57.908Z,27.69
2018-09-12T11:07:57.874Z,28.02
2018-09-12T11:08:57.846Z,27.88
2018-09-12T11:09:57.803Z,27.60
2018-09-12T11:10:57.806Z,27.67
2018-09-12T11:11:57.757Z,27.46
2018-09-12T11:12:57.724Z,27.40
2018-09-12T11:13:57.702Z,27.28
2018-09-12T11:14:57.684Z,27.37
2018-09-12T11:15:57.642Z,27.46
2018-09-12T11:16:57.614Z,27.67
2018-09-12T11:17:57.580Z,27.43
2018-09-12T11:18:57.537Z,27.37
2018-09-12T11:20:10.010Z,27.65
2018-09-12T11:20:58.645Z,27.74
2018-09-12T11:21:57.634Z,27.99
2018-09-12T11:22:57.443Z,27.93
2018-09-12T11:23:57.465Z,27.85
2018-09-12T11:24:57.382Z,27.88
2018-09-12T11:25:57.397Z,27.94
2018-09-12T11:26:57.393Z,27.87
2018-09-12T11:27:57.551Z,27.69
2018-09-12T11:28:57.290Z,27.70
2018-09-12T11:29:59.696Z,28.04
2018-09-12T11:30:58.541Z,28.36
2018-09-12T11:31:58.878Z,28.27
2018-09-12T11:33:00.418Z,28.18
2018-09-12T11:33:58.867Z,27.90
2018-09-12T11:34:59.611Z,27.85
2018-09-12T11:35:57.058Z,27.92
2018-09-12T11:36:57.043Z,27.60
2018-09-12T11:37:57.028Z,26.91
2018-09-12T11:38:56.967Z,26.81
2018-09-12T11:40:09.091Z,26.55
2018-09-12T11:40:57.082Z,26.43
2018-09-12T11:41:56.954Z,26.37
2018-09-12T11:42:57.065Z,26.07
2018-09-12T11:43:56.828Z,26.23
2018-09-12T11:44:56.789Z,26.15
2018-09-12T11:45:56.773Z,26.21
2018-09-12T11:46:56.724Z,26.20
2018-09-12T11:47:56.746Z,26.65
2018-09-12T11:48:56.695Z,26.88
2018-09-12T11:49:56.640Z,27.17
2018-09-12T11:50:56.619Z,27.51
2018-09-12T11:51:56.585Z,27.47
2018-09-12T11:52:56.616Z,27.46
2018-09-12T11:53:56.530Z,27.50
2018-09-12T11:54:56.509Z,27.82
2018-09-12T11:55:56.454Z,27.69
2018-09-12T11:56:56.443Z,27.87
2018-09-12T11:57:56.403Z,28.02
2018-09-12T11:58:56.406Z,28.17
2018-09-12T11:59:56.354Z,28.41
2018-09-12T12:00:56.319Z,28.48
2018-09-12T12:01:56.295Z,28.17
2018-09-12T12:02:56.289Z,28.00
2018-09-12T12:03:56.274Z,28.18
2018-09-12T12:04:56.253Z,28.30
2018-09-12T12:05:56.167Z,28.22
2018-09-12T12:06:56.214Z,28.04
2018-09-12T12:07:56.129Z,27.88
2018-09-12T12:08:56.104Z,27.60
2018-09-12T12:10:09.981Z,27.25
2018-09-12T12:10:56.091Z,26.97
2018-09-12T12:11:56.148Z,26.76
2018-09-12T12:12:56.037Z,26.51
2018-09-12T12:13:55.984Z,26.30
2018-09-12T12:14:55.934Z,26.63
2018-09-12T12:15:55.918Z,26.89
2018-09-12T12:16:55.845Z,27.25
2018-09-12T12:17:55.821Z,27.40
2018-09-12T12:18:55.795Z,27.51
2018-09-12T12:20:06.544Z,27.44
2018-09-12T12:20:58.260Z,27.51
2018-09-12T12:21:55.848Z,27.46
2018-09-12T12:22:55.688Z,27.19
2018-09-12T12:23:55.834Z,26.92
2018-09-12T12:24:55.690Z,26.75
2018-09-12T12:25:55.601Z,26.66
2018-09-12T12:26:55.555Z,26.47
2018-09-12T12:27:55.523Z,26.33
2018-09-12T12:28:55.512Z,25.99
2018-09-12T12:29:55.487Z,25.85
2018-09-12T12:30:55.420Z,25.88
2018-09-12T12:31:55.393Z,25.92
2018-09-12T12:32:55.354Z,25.91
2018-09-12T12:33:55.334Z,25.90
2018-09-12T12:34:55.312Z,25.85
2018-09-12T12:35:55.308Z,25.85
2018-09-12T12:36:55.241Z,25.94
2018-09-12T12:37:55.200Z,25.97
2018-09-12T12:38:55.193Z,25.80
2018-09-12T12:39:55.164Z,25.98
2018-09-12T12:40:55.138Z,26.20
2018-09-12T12:41:55.104Z,26.40
2018-09-12T12:42:55.078Z,26.45
2018-09-12T12:43:55.012Z,26.48
2018-09-12T12:44:55.025Z,26.37
2018-09-12T12:45:54.998Z,26.55
2018-09-12T12:46:54.960Z,26.60
2018-09-12T12:47:54.904Z,26.57
2018-09-12T12:48:54.881Z,26.63
2018-09-12T12:49:54.834Z,26.65
2018-09-12T12:50:54.847Z,26.62
2018-09-12T12:51:54.764Z,26.43